sensor_id;sensor_type;location;lat;lon;timestamp;P1;durP1;ratioP1;P2;durP2;ratioP2
22024;SDS011;11176;51.448;6.650;2023-01-24T00:00:14;21.25;;;15.85;;
22024;SDS011;11176;51.448;6.650;2023-01-24T00:02:41;23.10;;;16.45;;
22024;SDS011;11176;51.448;6.650;2023-01-24T00:05:08;24.13;;;16.92;;
22024;SDS011;11176;51.448;6.650;2023-01-24T00:07:35;23.15;;;16.25;;
22024;SDS011;11176;51.448;6.650;2023-01-24T00:10:01;25.02;;;17.10;;
22024;SDS011;11176;51.448;6.650;2023-01-24T00:12:28;23.77;;;16.80;;
22024;SDS011;11176;51.448;6.650;2023-01-24T00:14:55;21.95;;;16.58;;
22024;SDS011;11176;51.448;6.650;2023-01-24T00:17:23;22.50;;;16.33;;
22024;SDS011;11176;51.448;6.650;2023-01-24T00:19:50;22.20;;;16.27;;
22024;SDS011;11176;51.448;6.650;2023-01-24T00:22:16;24.55;;;16.05;;
22024;SDS011;11176;51.448;6.650;2023-01-24T00:24:43;21.52;;;16.15;;
22024;SDS011;11176;51.448;6.650;2023-01-24T00:27:09;21.40;;;16.33;;
22024;SDS011;11176;51.448;6.650;2023-01-24T00:29:36;23.45;;;17.33;;
22024;SDS011;11176;51.448;6.650;2023-01-24T00:32:02;24.35;;;17.77;;
22024;SDS011;11176;51.448;6.650;2023-01-24T00:34:30;25.15;;;17.77;;
22024;SDS011;11176;51.448;6.650;2023-01-24T00:36:57;25.38;;;18.63;;
22024;SDS011;11176;51.448;6.650;2023-01-24T00:39:24;26.92;;;19.35;;
22024;SDS011;11176;51.448;6.650;2023-01-24T00:41:52;25.73;;;19.83;;
22024;SDS011;11176;51.448;6.650;2023-01-24T00:44:18;24.63;;;18.27;;
22024;SDS011;11176;51.448;6.650;2023-01-24T00:46:45;24.77;;;18.75;;
22024;SDS011;11176;51.448;6.650;2023-01-24T00:49:12;28.50;;;20.88;;
22024;SDS011;11176;51.448;6.650;2023-01-24T00:51:38;29.20;;;21.10;;
22024;SDS011;11176;51.448;6.650;2023-01-24T00:54:05;30.85;;;21.60;;
22024;SDS011;11176;51.448;6.650;2023-01-24T00:56:31;27.27;;;20.55;;
22024;SDS011;11176;51.448;6.650;2023-01-24T00:58:58;27.23;;;20.17;;
22024;SDS011;11176;51.448;6.650;2023-01-24T01:01:24;25.75;;;19.98;;
22024;SDS011;11176;51.448;6.650;2023-01-24T01:03:54;27.60;;;20.10;;
22024;SDS011;11176;51.448;6.650;2023-01-24T01:06:24;28.73;;;21.47;;
22024;SDS011;11176;51.448;6.650;2023-01-24T01:08:51;28.33;;;20.30;;
22024;SDS011;11176;51.448;6.650;2023-01-24T01:11:18;26.85;;;19.92;;
22024;SDS011;11176;51.448;6.650;2023-01-24T01:13:45;26.38;;;20.33;;
22024;SDS011;11176;51.448;6.650;2023-01-24T01:16:17;28.90;;;21.70;;
22024;SDS011;11176;51.448;6.650;2023-01-24T01:18:46;27.63;;;20.00;;
22024;SDS011;11176;51.448;6.650;2023-01-24T01:21:14;28.10;;;21.10;;
22024;SDS011;11176;51.448;6.650;2023-01-24T01:23:43;27.88;;;20.17;;
22024;SDS011;11176;51.448;6.650;2023-01-24T01:26:14;26.63;;;19.85;;
22024;SDS011;11176;51.448;6.650;2023-01-24T01:28:42;26.48;;;20.90;;
22024;SDS011;11176;51.448;6.650;2023-01-24T01:31:09;28.92;;;21.27;;
22024;SDS011;11176;51.448;6.650;2023-01-24T01:33:36;28.15;;;20.90;;
22024;SDS011;11176;51.448;6.650;2023-01-24T01:36:02;26.58;;;19.45;;
22024;SDS011;11176;51.448;6.650;2023-01-24T01:38:29;24.48;;;18.38;;
22024;SDS011;11176;51.448;6.650;2023-01-24T01:40:56;24.80;;;18.58;;
22024;SDS011;11176;51.448;6.650;2023-01-24T01:43:25;27.92;;;19.85;;
22024;SDS011;11176;51.448;6.650;2023-01-24T01:45:58;27.95;;;20.27;;
22024;SDS011;11176;51.448;6.650;2023-01-24T01:48:43;27.42;;;20.40;;
22024;SDS011;11176;51.448;6.650;2023-01-24T01:51:22;28.73;;;19.98;;
22024;SDS011;11176;51.448;6.650;2023-01-24T01:54:08;27.20;;;19.90;;
22024;SDS011;11176;51.448;6.650;2023-01-24T01:56:40;25.38;;;18.92;;
22024;SDS011;11176;51.448;6.650;2023-01-24T01:59:13;24.85;;;18.42;;
22024;SDS011;11176;51.448;6.650;2023-01-24T02:01:42;23.38;;;16.40;;
22024;SDS011;11176;51.448;6.650;2023-01-24T02:04:11;21.67;;;16.05;;
22024;SDS011;11176;51.448;6.650;2023-01-24T02:09:41;20.40;;;15.02;;
22024;SDS011;11176;51.448;6.650;2023-01-24T02:12:10;20.27;;;14.85;;
22024;SDS011;11176;51.448;6.650;2023-01-24T02:14:39;20.05;;;14.55;;
22024;SDS011;11176;51.448;6.650;2023-01-24T02:17:25;20.42;;;15.38;;
22024;SDS011;11176;51.448;6.650;2023-01-24T02:22:38;21.48;;;15.43;;
22024;SDS011;11176;51.448;6.650;2023-01-24T02:25:19;20.73;;;15.35;;
22024;SDS011;11176;51.448;6.650;2023-01-24T02:28:02;21.13;;;15.05;;
22024;SDS011;11176;51.448;6.650;2023-01-24T02:30:32;21.33;;;15.38;;
22024;SDS011;11176;51.448;6.650;2023-01-24T02:33:08;19.20;;;14.45;;
22024;SDS011;11176;51.448;6.650;2023-01-24T02:35:39;20.27;;;14.45;;
22024;SDS011;11176;51.448;6.650;2023-01-24T02:38:06;18.52;;;13.80;;
22024;SDS011;11176;51.448;6.650;2023-01-24T02:40:42;17.92;;;13.75;;
22024;SDS011;11176;51.448;6.650;2023-01-24T02:43:09;16.63;;;12.98;;
22024;SDS011;11176;51.448;6.650;2023-01-24T02:45:39;16.52;;;12.60;;
22024;SDS011;11176;51.448;6.650;2023-01-24T02:48:05;17.40;;;13.07;;
22024;SDS011;11176;51.448;6.650;2023-01-24T02:50:32;16.73;;;11.82;;
22024;SDS011;11176;51.448;6.650;2023-01-24T02:53:17;13.85;;;10.60;;
22024;SDS011;11176;51.448;6.650;2023-01-24T02:56:01;14.02;;;10.88;;
22024;SDS011;11176;51.448;6.650;2023-01-24T02:58:49;14.52;;;10.05;;
22024;SDS011;11176;51.448;6.650;2023-01-24T03:01:16;16.35;;;11.40;;
22024;SDS011;11176;51.448;6.650;2023-01-24T03:03:47;13.10;;;9.98;;
22024;SDS011;11176;51.448;6.650;2023-01-24T03:06:15;13.30;;;9.60;;
22024;SDS011;11176;51.448;6.650;2023-01-24T03:08:44;12.70;;;9.80;;
22024;SDS011;11176;51.448;6.650;2023-01-24T03:11:21;14.48;;;10.70;;
22024;SDS011;11176;51.448;6.650;2023-01-24T03:13:48;12.38;;;9.60;;
22024;SDS011;11176;51.448;6.650;2023-01-24T03:16:34;13.10;;;9.68;;
22024;SDS011;11176;51.448;6.650;2023-01-24T03:19:19;12.80;;;9.93;;
22024;SDS011;11176;51.448;6.650;2023-01-24T03:22:06;13.77;;;10.25;;
22024;SDS011;11176;51.448;6.650;2023-01-24T03:24:51;14.18;;;10.25;;
22024;SDS011;11176;51.448;6.650;2023-01-24T03:27:36;14.45;;;10.68;;
22024;SDS011;11176;51.448;6.650;2023-01-24T03:30:28;15.05;;;10.70;;
22024;SDS011;11176;51.448;6.650;2023-01-24T03:33:13;13.93;;;10.60;;
22024;SDS011;11176;51.448;6.650;2023-01-24T03:35:59;13.32;;;10.30;;
22024;SDS011;11176;51.448;6.650;2023-01-24T03:38:31;14.70;;;10.73;;
22024;SDS011;11176;51.448;6.650;2023-01-24T03:41:18;14.05;;;10.23;;
22024;SDS011;11176;51.448;6.650;2023-01-24T03:43:45;13.57;;;9.95;;
22024;SDS011;11176;51.448;6.650;2023-01-24T03:46:13;12.35;;;9.38;;
22024;SDS011;11176;51.448;6.650;2023-01-24T03:48:46;13.75;;;9.50;;
22024;SDS011;11176;51.448;6.650;2023-01-24T03:51:13;12.55;;;9.13;;
22024;SDS011;11176;51.448;6.650;2023-01-24T03:53:59;13.60;;;9.05;;
22024;SDS011;11176;51.448;6.650;2023-01-24T03:56:36;12.98;;;9.23;;
22024;SDS011;11176;51.448;6.650;2023-01-24T03:59:03;12.70;;;9.25;;
22024;SDS011;11176;51.448;6.650;2023-01-24T04:01:33;13.02;;;9.05;;
22024;SDS011;11176;51.448;6.650;2023-01-24T04:04:17;12.55;;;8.88;;
22024;SDS011;11176;51.448;6.650;2023-01-24T04:06:43;12.80;;;9.20;;
22024;SDS011;11176;51.448;6.650;2023-01-24T04:09:11;12.48;;;9.25;;
22024;SDS011;11176;51.448;6.650;2023-01-24T04:11:39;11.82;;;8.75;;
22024;SDS011;11176;51.448;6.650;2023-01-24T04:14:18;11.93;;;8.82;;
22024;SDS011;11176;51.448;6.650;2023-01-24T04:16:54;13.02;;;8.70;;
22024;SDS011;11176;51.448;6.650;2023-01-24T04:19:26;12.20;;;9.20;;
22024;SDS011;11176;51.448;6.650;2023-01-24T04:21:53;14.18;;;10.05;;
22024;SDS011;11176;51.448;6.650;2023-01-24T04:24:20;13.98;;;9.60;;
22024;SDS011;11176;51.448;6.650;2023-01-24T04:26:46;12.20;;;9.07;;
22024;SDS011;11176;51.448;6.650;2023-01-24T04:29:17;11.52;;;8.30;;
22024;SDS011;11176;51.448;6.650;2023-01-24T04:31:47;11.80;;;8.45;;
22024;SDS011;11176;51.448;6.650;2023-01-24T04:34:36;12.27;;;8.93;;
22024;SDS011;11176;51.448;6.650;2023-01-24T04:37:05;14.48;;;8.73;;
22024;SDS011;11176;51.448;6.650;2023-01-24T04:39:33;11.10;;;8.02;;
22024;SDS011;11176;51.448;6.650;2023-01-24T04:42:11;12.00;;;8.25;;
22024;SDS011;11176;51.448;6.650;2023-01-24T04:44:39;11.63;;;8.70;;
22024;SDS011;11176;51.448;6.650;2023-01-24T04:47:08;11.65;;;8.07;;
22024;SDS011;11176;51.448;6.650;2023-01-24T04:49:34;13.05;;;8.40;;
22024;SDS011;11176;51.448;6.650;2023-01-24T04:52:02;12.88;;;8.30;;
22024;SDS011;11176;51.448;6.650;2023-01-24T04:54:41;10.50;;;7.65;;
22024;SDS011;11176;51.448;6.650;2023-01-24T04:57:09;12.45;;;8.27;;
22024;SDS011;11176;51.448;6.650;2023-01-24T04:59:38;12.55;;;8.50;;
22024;SDS011;11176;51.448;6.650;2023-01-24T05:02:06;10.57;;;8.13;;
22024;SDS011;11176;51.448;6.650;2023-01-24T05:04:41;12.57;;;9.45;;
22024;SDS011;11176;51.448;6.650;2023-01-24T05:07:10;13.70;;;9.40;;
22024;SDS011;11176;51.448;6.650;2023-01-24T05:09:41;13.95;;;10.13;;
22024;SDS011;11176;51.448;6.650;2023-01-24T05:12:10;14.82;;;10.07;;
22024;SDS011;11176;51.448;6.650;2023-01-24T05:14:36;14.27;;;10.18;;
22024;SDS011;11176;51.448;6.650;2023-01-24T05:17:03;14.68;;;9.90;;
22024;SDS011;11176;51.448;6.650;2023-01-24T05:19:33;13.00;;;9.35;;
22024;SDS011;11176;51.448;6.650;2023-01-24T05:21:59;13.50;;;9.98;;
22024;SDS011;11176;51.448;6.650;2023-01-24T05:24:30;14.07;;;9.63;;
22024;SDS011;11176;51.448;6.650;2023-01-24T05:26:57;13.20;;;9.30;;
22024;SDS011;11176;51.448;6.650;2023-01-24T05:29:26;13.38;;;9.82;;
22024;SDS011;11176;51.448;6.650;2023-01-24T05:31:54;15.30;;;10.82;;
22024;SDS011;11176;51.448;6.650;2023-01-24T05:34:20;16.33;;;10.57;;
22024;SDS011;11176;51.448;6.650;2023-01-24T05:36:47;14.82;;;10.50;;
22024;SDS011;11176;51.448;6.650;2023-01-24T05:39:14;13.55;;;9.88;;
22024;SDS011;11176;51.448;6.650;2023-01-24T05:41:43;14.30;;;9.93;;
22024;SDS011;11176;51.448;6.650;2023-01-24T05:44:10;15.25;;;10.45;;
22024;SDS011;11176;51.448;6.650;2023-01-24T05:46:39;17.88;;;11.32;;
22024;SDS011;11176;51.448;6.650;2023-01-24T05:49:19;19.02;;;12.55;;
22024;SDS011;11176;51.448;6.650;2023-01-24T05:51:46;19.58;;;13.68;;
22024;SDS011;11176;51.448;6.650;2023-01-24T05:54:20;18.80;;;13.15;;
22024;SDS011;11176;51.448;6.650;2023-01-24T05:56:55;20.65;;;15.05;;
22024;SDS011;11176;51.448;6.650;2023-01-24T05:59:23;20.77;;;15.38;;
22024;SDS011;11176;51.448;6.650;2023-01-24T06:01:50;20.20;;;14.40;;
22024;SDS011;11176;51.448;6.650;2023-01-24T06:04:19;18.98;;;14.50;;
22024;SDS011;11176;51.448;6.650;2023-01-24T06:06:45;20.75;;;14.90;;
22024;SDS011;11176;51.448;6.650;2023-01-24T06:09:12;19.08;;;14.15;;
22024;SDS011;11176;51.448;6.650;2023-01-24T06:11:38;19.23;;;14.40;;
22024;SDS011;11176;51.448;6.650;2023-01-24T06:14:12;21.92;;;14.07;;
22024;SDS011;11176;51.448;6.650;2023-01-24T06:16:42;21.23;;;14.73;;
22024;SDS011;11176;51.448;6.650;2023-01-24T06:19:12;20.95;;;15.82;;
22024;SDS011;11176;51.448;6.650;2023-01-24T06:24:14;20.80;;;15.70;;
22024;SDS011;11176;51.448;6.650;2023-01-24T06:26:53;21.08;;;15.15;;
22024;SDS011;11176;51.448;6.650;2023-01-24T06:29:21;22.88;;;16.83;;
22024;SDS011;11176;51.448;6.650;2023-01-24T06:31:57;21.45;;;16.30;;
22024;SDS011;11176;51.448;6.650;2023-01-24T06:34:34;23.38;;;17.10;;
22024;SDS011;11176;51.448;6.650;2023-01-24T06:39:52;24.73;;;17.40;;
22024;SDS011;11176;51.448;6.650;2023-01-24T06:42:19;24.98;;;17.88;;
22024;SDS011;11176;51.448;6.650;2023-01-24T06:44:49;23.38;;;18.05;;
22024;SDS011;11176;51.448;6.650;2023-01-24T06:47:15;23.05;;;18.30;;
22024;SDS011;11176;51.448;6.650;2023-01-24T06:49:42;23.27;;;17.33;;
22024;SDS011;11176;51.448;6.650;2023-01-24T06:52:10;23.55;;;17.80;;
22024;SDS011;11176;51.448;6.650;2023-01-24T06:54:39;24.45;;;18.33;;
22024;SDS011;11176;51.448;6.650;2023-01-24T06:57:05;24.30;;;18.38;;
22024;SDS011;11176;51.448;6.650;2023-01-24T06:59:32;24.90;;;18.73;;
22024;SDS011;11176;51.448;6.650;2023-01-24T07:01:58;26.05;;;18.25;;
22024;SDS011;11176;51.448;6.650;2023-01-24T07:04:25;27.65;;;19.00;;
22024;SDS011;11176;51.448;6.650;2023-01-24T07:06:51;27.48;;;19.02;;
22024;SDS011;11176;51.448;6.650;2023-01-24T07:09:21;25.85;;;18.80;;
22024;SDS011;11176;51.448;6.650;2023-01-24T07:11:49;31.10;;;20.17;;
22024;SDS011;11176;51.448;6.650;2023-01-24T07:14:19;26.92;;;18.92;;
22024;SDS011;11176;51.448;6.650;2023-01-24T07:16:46;28.70;;;19.20;;
22024;SDS011;11176;51.448;6.650;2023-01-24T07:19:13;26.65;;;19.20;;
22024;SDS011;11176;51.448;6.650;2023-01-24T07:21:42;24.90;;;17.73;;
22024;SDS011;11176;51.448;6.650;2023-01-24T07:24:13;26.75;;;19.23;;
22024;SDS011;11176;51.448;6.650;2023-01-24T07:26:42;24.98;;;18.17;;
22024;SDS011;11176;51.448;6.650;2023-01-24T07:29:09;25.10;;;17.55;;
22024;SDS011;11176;51.448;6.650;2023-01-24T07:31:37;24.05;;;17.77;;
22024;SDS011;11176;51.448;6.650;2023-01-24T07:34:04;24.35;;;17.50;;
22024;SDS011;11176;51.448;6.650;2023-01-24T07:36:31;24.10;;;17.63;;
22024;SDS011;11176;51.448;6.650;2023-01-24T07:38:57;24.52;;;17.02;;
22024;SDS011;11176;51.448;6.650;2023-01-24T07:41:24;24.02;;;17.30;;
22024;SDS011;11176;51.448;6.650;2023-01-24T07:43:52;23.05;;;16.80;;
22024;SDS011;11176;51.448;6.650;2023-01-24T07:46:19;27.05;;;18.25;;
22024;SDS011;11176;51.448;6.650;2023-01-24T07:48:46;23.27;;;16.92;;
22024;SDS011;11176;51.448;6.650;2023-01-24T07:51:13;23.75;;;17.70;;
22024;SDS011;11176;51.448;6.650;2023-01-24T07:53:39;24.17;;;17.30;;
22024;SDS011;11176;51.448;6.650;2023-01-24T07:56:06;22.63;;;16.65;;
22024;SDS011;11176;51.448;6.650;2023-01-24T07:58:40;23.67;;;16.90;;
22024;SDS011;11176;51.448;6.650;2023-01-24T08:01:06;24.25;;;17.52;;
22024;SDS011;11176;51.448;6.650;2023-01-24T08:03:33;25.60;;;18.65;;
22024;SDS011;11176;51.448;6.650;2023-01-24T08:05:59;23.42;;;18.15;;
22024;SDS011;11176;51.448;6.650;2023-01-24T08:08:26;24.08;;;17.42;;
22024;SDS011;11176;51.448;6.650;2023-01-24T08:10:52;24.58;;;16.67;;
22024;SDS011;11176;51.448;6.650;2023-01-24T08:13:19;24.50;;;16.77;;
22024;SDS011;11176;51.448;6.650;2023-01-24T08:15:45;22.33;;;16.83;;
22024;SDS011;11176;51.448;6.650;2023-01-24T08:18:11;25.20;;;18.05;;
22024;SDS011;11176;51.448;6.650;2023-01-24T08:20:38;24.83;;;18.08;;
22024;SDS011;11176;51.448;6.650;2023-01-24T08:23:04;23.00;;;17.23;;
22024;SDS011;11176;51.448;6.650;2023-01-24T08:25:31;25.35;;;18.42;;
22024;SDS011;11176;51.448;6.650;2023-01-24T08:28:00;25.30;;;18.67;;
22024;SDS011;11176;51.448;6.650;2023-01-24T08:30:26;23.67;;;17.63;;
22024;SDS011;11176;51.448;6.650;2023-01-24T08:33:00;24.05;;;17.48;;
22024;SDS011;11176;51.448;6.650;2023-01-24T08:35:28;23.85;;;17.23;;
22024;SDS011;11176;51.448;6.650;2023-01-24T08:37:56;24.10;;;17.50;;
22024;SDS011;11176;51.448;6.650;2023-01-24T08:40:22;24.65;;;17.30;;
22024;SDS011;11176;51.448;6.650;2023-01-24T08:42:49;21.73;;;16.63;;
22024;SDS011;11176;51.448;6.650;2023-01-24T08:45:16;22.70;;;16.85;;
22024;SDS011;11176;51.448;6.650;2023-01-24T08:47:42;22.67;;;17.70;;
22024;SDS011;11176;51.448;6.650;2023-01-24T08:50:09;25.33;;;17.92;;
22024;SDS011;11176;51.448;6.650;2023-01-24T08:52:36;23.95;;;18.23;;
22024;SDS011;11176;51.448;6.650;2023-01-24T08:55:02;24.70;;;18.73;;
22024;SDS011;11176;51.448;6.650;2023-01-24T08:57:29;24.50;;;18.40;;
22024;SDS011;11176;51.448;6.650;2023-01-24T08:59:55;23.75;;;18.30;;
22024;SDS011;11176;51.448;6.650;2023-01-24T09:02:22;25.98;;;18.73;;
22024;SDS011;11176;51.448;6.650;2023-01-24T09:04:49;26.05;;;19.02;;
22024;SDS011;11176;51.448;6.650;2023-01-24T09:07:16;26.63;;;19.80;;
22024;SDS011;11176;51.448;6.650;2023-01-24T09:09:42;27.10;;;19.42;;
22024;SDS011;11176;51.448;6.650;2023-01-24T09:12:09;24.73;;;19.08;;
22024;SDS011;11176;51.448;6.650;2023-01-24T09:14:35;22.73;;;17.98;;
22024;SDS011;11176;51.448;6.650;2023-01-24T09:17:02;26.73;;;19.38;;
22024;SDS011;11176;51.448;6.650;2023-01-24T09:19:28;24.27;;;18.50;;
22024;SDS011;11176;51.448;6.650;2023-01-24T09:21:55;25.00;;;18.55;;
22024;SDS011;11176;51.448;6.650;2023-01-24T09:24:23;24.00;;;18.58;;
22024;SDS011;11176;51.448;6.650;2023-01-24T09:26:50;25.85;;;18.85;;
22024;SDS011;11176;51.448;6.650;2023-01-24T09:29:17;22.15;;;17.67;;
22024;SDS011;11176;51.448;6.650;2023-01-24T09:31:43;24.45;;;18.35;;
22024;SDS011;11176;51.448;6.650;2023-01-24T09:34:10;23.20;;;18.88;;
22024;SDS011;11176;51.448;6.650;2023-01-24T09:36:36;22.40;;;17.58;;
22024;SDS011;11176;51.448;6.650;2023-01-24T09:39:03;23.33;;;18.05;;
22024;SDS011;11176;51.448;6.650;2023-01-24T09:41:53;25.50;;;18.17;;
22024;SDS011;11176;51.448;6.650;2023-01-24T09:44:39;20.00;;;14.55;;
22024;SDS011;11176;51.448;6.650;2023-01-24T09:50:28;16.42;;;12.38;;
22024;SDS011;11176;51.448;6.650;2023-01-24T09:53:03;14.77;;;12.00;;
22024;SDS011;11176;51.448;6.650;2023-01-24T09:55:31;13.90;;;11.63;;
22024;SDS011;11176;51.448;6.650;2023-01-24T10:00:31;18.70;;;13.45;;
22024;SDS011;11176;51.448;6.650;2023-01-24T10:03:00;20.95;;;15.38;;
22024;SDS011;11176;51.448;6.650;2023-01-24T10:05:35;21.77;;;16.65;;
22024;SDS011;11176;51.448;6.650;2023-01-24T10:10:39;20.42;;;15.75;;
22024;SDS011;11176;51.448;6.650;2023-01-24T10:24:30;18.70;;;13.95;;
22024;SDS011;11176;51.448;6.650;2023-01-24T10:27:01;18.77;;;13.38;;
22024;SDS011;11176;51.448;6.650;2023-01-24T10:29:42;17.00;;;12.82;;
22024;SDS011;11176;51.448;6.650;2023-01-24T10:34:41;18.92;;;13.80;;
22024;SDS011;11176;51.448;6.650;2023-01-24T10:37:14;20.48;;;15.75;;
22024;SDS011;11176;51.448;6.650;2023-01-24T10:39:50;21.42;;;16.10;;
22024;SDS011;11176;51.448;6.650;2023-01-24T10:42:27;22.30;;;15.48;;
22024;SDS011;11176;51.448;6.650;2023-01-24T10:44:58;19.95;;;15.18;;
22024;SDS011;11176;51.448;6.650;2023-01-24T10:50:17;20.52;;;15.60;;
22024;SDS011;11176;51.448;6.650;2023-01-24T10:52:44;22.38;;;16.08;;
22024;SDS011;11176;51.448;6.650;2023-01-24T10:55:48;19.95;;;16.05;;
22024;SDS011;11176;51.448;6.650;2023-01-24T10:58:19;20.30;;;14.95;;
22024;SDS011;11176;51.448;6.650;2023-01-24T11:00:56;18.83;;;14.30;;
22024;SDS011;11176;51.448;6.650;2023-01-24T11:03:28;16.98;;;13.25;;
22024;SDS011;11176;51.448;6.650;2023-01-24T11:05:56;16.25;;;12.23;;
22024;SDS011;11176;51.448;6.650;2023-01-24T11:08:25;16.10;;;12.23;;
22024;SDS011;11176;51.448;6.650;2023-01-24T11:10:57;15.85;;;11.95;;
22024;SDS011;11176;51.448;6.650;2023-01-24T11:13:32;16.75;;;12.25;;
22024;SDS011;11176;51.448;6.650;2023-01-24T11:21:23;15.63;;;10.68;;
22024;SDS011;11176;51.448;6.650;2023-01-24T11:24:00;14.00;;;10.05;;
22024;SDS011;11176;51.448;6.650;2023-01-24T11:26:56;15.32;;;10.32;;
22024;SDS011;11176;51.448;6.650;2023-01-24T11:29:27;14.20;;;10.20;;
22024;SDS011;11176;51.448;6.650;2023-01-24T11:31:54;16.10;;;12.80;;
22024;SDS011;11176;51.448;6.650;2023-01-24T11:37:06;25.67;;;15.98;;
22024;SDS011;11176;51.448;6.650;2023-01-24T11:39:43;21.48;;;16.10;;
22024;SDS011;11176;51.448;6.650;2023-01-24T11:50:58;19.00;;;14.40;;
22024;SDS011;11176;51.448;6.650;2023-01-24T11:53:44;19.23;;;13.60;;
22024;SDS011;11176;51.448;6.650;2023-01-24T11:56:42;16.23;;;12.88;;
22024;SDS011;11176;51.448;6.650;2023-01-24T12:02:23;16.23;;;12.00;;
22024;SDS011;11176;51.448;6.650;2023-01-24T12:07:59;20.02;;;15.20;;
22024;SDS011;11176;51.448;6.650;2023-01-24T12:13:35;16.70;;;12.63;;
22024;SDS011;11176;51.448;6.650;2023-01-24T12:16:22;16.60;;;12.32;;
22024;SDS011;11176;51.448;6.650;2023-01-24T12:22:17;19.92;;;12.30;;
22024;SDS011;11176;51.448;6.650;2023-01-24T12:24:48;17.13;;;12.43;;
22024;SDS011;11176;51.448;6.650;2023-01-24T12:27:40;17.60;;;12.93;;
22024;SDS011;11176;51.448;6.650;2023-01-24T12:32:55;16.95;;;12.98;;
22024;SDS011;11176;51.448;6.650;2023-01-24T12:35:29;17.55;;;13.23;;
22024;SDS011;11176;51.448;6.650;2023-01-24T12:38:03;20.98;;;13.95;;
22024;SDS011;11176;51.448;6.650;2023-01-24T12:43:21;19.35;;;12.45;;
22024;SDS011;11176;51.448;6.650;2023-01-24T12:46:11;19.45;;;11.50;;
22024;SDS011;11176;51.448;6.650;2023-01-24T12:51:42;11.68;;;9.65;;
22024;SDS011;11176;51.448;6.650;2023-01-24T12:54:18;10.90;;;8.85;;
22024;SDS011;11176;51.448;6.650;2023-01-24T12:59:26;11.25;;;8.73;;
22024;SDS011;11176;51.448;6.650;2023-01-24T13:02:15;13.82;;;9.55;;
22024;SDS011;11176;51.448;6.650;2023-01-24T13:13:07;20.33;;;11.70;;
22024;SDS011;11176;51.448;6.650;2023-01-24T13:21:44;14.35;;;11.68;;
22024;SDS011;11176;51.448;6.650;2023-01-24T13:29:52;19.13;;;11.02;;
22024;SDS011;11176;51.448;6.650;2023-01-24T13:32:32;13.80;;;11.40;;
22024;SDS011;11176;51.448;6.650;2023-01-24T13:38:02;15.50;;;11.52;;
22024;SDS011;11176;51.448;6.650;2023-01-24T13:40:32;16.75;;;12.85;;
22024;SDS011;11176;51.448;6.650;2023-01-24T13:43:02;16.58;;;12.80;;
22024;SDS011;11176;51.448;6.650;2023-01-24T13:45:40;14.82;;;11.35;;
22024;SDS011;11176;51.448;6.650;2023-01-24T13:48:42;16.08;;;11.95;;
22024;SDS011;11176;51.448;6.650;2023-01-24T13:56:23;16.73;;;12.85;;
22024;SDS011;11176;51.448;6.650;2023-01-24T13:58:51;17.98;;;12.93;;
22024;SDS011;11176;51.448;6.650;2023-01-24T14:01:19;14.68;;;12.05;;
22024;SDS011;11176;51.448;6.650;2023-01-24T14:03:55;15.70;;;12.10;;
22024;SDS011;11176;51.448;6.650;2023-01-24T14:06:24;17.73;;;13.50;;
22024;SDS011;11176;51.448;6.650;2023-01-24T14:09:03;18.98;;;13.45;;
22024;SDS011;11176;51.448;6.650;2023-01-24T14:11:38;16.60;;;12.85;;
22024;SDS011;11176;51.448;6.650;2023-01-24T14:14:25;21.92;;;17.08;;
22024;SDS011;11176;51.448;6.650;2023-01-24T14:16:54;22.63;;;18.52;;
22024;SDS011;11176;51.448;6.650;2023-01-24T14:19:30;22.10;;;16.85;;
22024;SDS011;11176;51.448;6.650;2023-01-24T14:24:48;22.75;;;16.25;;
22024;SDS011;11176;51.448;6.650;2023-01-24T14:27:53;22.33;;;15.68;;
22024;SDS011;11176;51.448;6.650;2023-01-24T14:30:30;20.70;;;15.77;;
22024;SDS011;11176;51.448;6.650;2023-01-24T14:33:34;25.88;;;19.35;;
22024;SDS011;11176;51.448;6.650;2023-01-24T14:41:39;19.70;;;13.95;;
22024;SDS011;11176;51.448;6.650;2023-01-24T14:44:20;19.25;;;15.00;;
22024;SDS011;11176;51.448;6.650;2023-01-24T14:47:32;22.23;;;16.50;;
22024;SDS011;11176;51.448;6.650;2023-01-24T14:49:43;22.55;;;15.82;;
22024;SDS011;11176;51.448;6.650;2023-01-24T14:52:16;21.98;;;16.65;;
22024;SDS011;11176;51.448;6.650;2023-01-24T14:54:54;22.35;;;17.10;;
22024;SDS011;11176;51.448;6.650;2023-01-24T15:02:31;22.63;;;17.05;;
22024;SDS011;11176;51.448;6.650;2023-01-24T15:04:58;21.75;;;17.48;;
22024;SDS011;11176;51.448;6.650;2023-01-24T15:07:25;22.45;;;17.75;;
22024;SDS011;11176;51.448;6.650;2023-01-24T15:09:53;20.83;;;16.50;;
22024;SDS011;11176;51.448;6.650;2023-01-24T15:12:21;22.55;;;17.33;;
22024;SDS011;11176;51.448;6.650;2023-01-24T15:14:49;22.85;;;17.02;;
22024;SDS011;11176;51.448;6.650;2023-01-24T15:17:20;20.10;;;15.93;;
22024;SDS011;11176;51.448;6.650;2023-01-24T15:19:50;21.48;;;16.67;;
22024;SDS011;11176;51.448;6.650;2023-01-24T15:22:20;26.23;;;20.27;;
22024;SDS011;11176;51.448;6.650;2023-01-24T15:24:57;27.77;;;20.70;;
22024;SDS011;11176;51.448;6.650;2023-01-24T15:30:29;26.20;;;20.88;;
22024;SDS011;11176;51.448;6.650;2023-01-24T15:32:50;26.20;;;20.77;;
22024;SDS011;11176;51.448;6.650;2023-01-24T15:36:00;26.55;;;21.00;;
22024;SDS011;11176;51.448;6.650;2023-01-24T15:38:20;25.67;;;21.37;;
22024;SDS011;11176;51.448;6.650;2023-01-24T15:43:34;24.90;;;18.88;;
22024;SDS011;11176;51.448;6.650;2023-01-24T15:46:26;23.13;;;19.17;;
22024;SDS011;11176;51.448;6.650;2023-01-24T15:49:19;23.02;;;17.90;;
22024;SDS011;11176;51.448;6.650;2023-01-24T15:52:01;23.23;;;17.02;;
22024;SDS011;11176;51.448;6.650;2023-01-24T15:54:40;19.20;;;16.58;;
22024;SDS011;11176;51.448;6.650;2023-01-24T15:57:23;22.10;;;17.88;;
22024;SDS011;11176;51.448;6.650;2023-01-24T15:59:55;21.47;;;17.57;;
22024;SDS011;11176;51.448;6.650;2023-01-24T16:02:43;24.55;;;18.45;;
22024;SDS011;11176;51.448;6.650;2023-01-24T16:05:14;23.10;;;17.67;;
22024;SDS011;11176;51.448;6.650;2023-01-24T16:07:42;23.10;;;18.77;;
22024;SDS011;11176;51.448;6.650;2023-01-24T16:10:11;23.17;;;18.42;;
22024;SDS011;11176;51.448;6.650;2023-01-24T16:12:40;21.60;;;17.30;;
22024;SDS011;11176;51.448;6.650;2023-01-24T16:15:14;24.25;;;19.77;;
22024;SDS011;11176;51.448;6.650;2023-01-24T16:17:43;25.50;;;17.80;;
22024;SDS011;11176;51.448;6.650;2023-01-24T16:20:23;22.90;;;17.67;;
22024;SDS011;11176;51.448;6.650;2023-01-24T16:22:53;24.70;;;18.98;;
22024;SDS011;11176;51.448;6.650;2023-01-24T16:25:21;23.92;;;17.80;;
22024;SDS011;11176;51.448;6.650;2023-01-24T16:27:48;20.10;;;16.42;;
22024;SDS011;11176;51.448;6.650;2023-01-24T16:30:24;21.08;;;16.52;;
22024;SDS011;11176;51.448;6.650;2023-01-24T16:32:51;20.70;;;16.60;;
22024;SDS011;11176;51.448;6.650;2023-01-24T16:35:19;24.48;;;17.35;;
22024;SDS011;11176;51.448;6.650;2023-01-24T16:37:46;24.42;;;16.23;;
22024;SDS011;11176;51.448;6.650;2023-01-24T16:40:14;20.52;;;16.15;;
22024;SDS011;11176;51.448;6.650;2023-01-24T16:42:43;21.63;;;17.75;;
22024;SDS011;11176;51.448;6.650;2023-01-24T16:45:12;26.85;;;21.20;;
22024;SDS011;11176;51.448;6.650;2023-01-24T16:47:44;30.58;;;23.40;;
22024;SDS011;11176;51.448;6.650;2023-01-24T16:50:12;29.40;;;23.40;;
22024;SDS011;11176;51.448;6.650;2023-01-24T16:52:39;28.10;;;22.23;;